Time;durP1;ratioP1;P1;durP2;ratioP2;P2;SDS_P1;SDS_P2;PMS_P1;PMS_P2;Temp;Humidity;BMP_temperature;BMP_pressure;BME280_temperature;BME280_humidity;BME280_pressure;Samples;Min_cycle;Max_cycle;Signal;HPM_P1;HPM_P2
2022/06/21 00:00:20;;;;;;;9.23;8.73;;;;;;;16.26;73.06;92521.31;4980200;28;20205;-76
2022/06/21 00:02:47;;;;;;;10.10;9.50;;;;;;;16.27;73.34;92519.41;4981256;28;20201;-76
2022/06/21 00:05:27;;;;;;;10.30;9.77;;;;;;;16.18;73.31;92505.50;4983380;28;20204;-77
2022/06/21 00:07:53;;;;;;;10.63;9.90;;;;;;;16.25;73.37;92505.81;4983317;28;20314;-76
2022/06/21 00:10:19;;;;;;;9.57;8.87;;;;;;;16.29;73.83;92518.03;4981990;28;20219;-76
2022/06/21 00:12:46;;;;;;;9.07;8.57;;;;;;;16.23;74.50;92507.97;4981646;28;20193;-76
2022/06/21 00:15:12;;;;;;;9.80;9.20;;;;;;;16.22;74.63;92515.09;4981915;28;20200;-76
2022/06/21 00:17:40;;;;;;;9.57;9.00;;;;;;;16.15;75.09;92512.19;4981588;28;20220;-76
2022/06/21 00:20:07;;;;;;;9.40;8.73;;;;;;;16.11;75.39;92503.34;4984591;28;20197;-76
2022/06/21 00:22:33;;;;;;;9.63;9.13;;;;;;;16.17;74.98;92503.97;4983900;28;20844;-76
2022/06/21 00:24:58;;;;;;;8.93;8.33;;;;;;;16.11;75.62;92511.25;4997143;28;20197;-76
2022/06/21 00:27:24;;;;;;;9.30;8.80;;;;;;;16.01;75.16;92503.69;4980703;28;20220;-76
2022/06/21 00:29:50;;;;;;;9.43;8.97;;;;;;;16.00;75.41;92500.28;4983477;28;20600;-76
2022/06/21 00:32:17;;;;;;;11.23;10.30;;;;;;;15.99;75.67;92506.66;4982635;28;20246;-76
2022/06/21 00:34:45;;;;;;;10.20;9.40;;;;;;;15.77;76.39;92498.16;4986214;28;20220;-76
2022/06/21 00:37:18;;;;;;;9.33;8.83;;;;;;;15.86;76.16;92507.59;4984035;28;20221;-76
2022/06/21 00:39:44;;;;;;;9.30;8.87;;;;;;;15.86;76.62;92504.19;4983588;28;20215;-76
2022/06/21 00:42:19;;;;;;;8.97;8.57;;;;;;;15.83;76.51;92496.91;4981668;28;20216;-76
2022/06/21 00:44:56;;;;;;;9.30;8.80;;;;;;;15.87;76.53;92500.47;4984322;28;20429;-76
2022/06/21 00:47:32;;;;;;;9.93;9.43;;;;;;;15.90;76.65;92495.38;4982993;28;20254;-77
2022/06/21 00:50:03;;;;;;;10.07;9.37;;;;;;;15.91;77.00;92496.13;4984732;28;20215;-76
2022/06/21 00:52:55;;;;;;;9.47;8.77;;;;;;;15.78;77.44;92497.84;4983012;28;20227;-76
2022/06/21 00:55:55;;;;;;;10.17;9.57;;;;;;;15.62;78.19;92498.66;4982596;28;20224;-76
2022/06/21 00:58:23;;;;;;;9.93;9.43;;;;;;;15.69;78.38;92498.94;4950836;28;20212;-76
2022/06/21 01:00:55;;;;;;;10.37;9.77;;;;;;;15.58;78.91;92495.88;4989116;28;20237;-76
2022/06/21 01:03:25;;;;;;;10.73;9.93;;;;;;;15.55;79.08;92496.50;5002252;28;20188;-76
2022/06/21 01:05:53;;;;;;;10.40;9.80;;;;;;;15.64;78.69;92488.59;5003705;28;20235;-76
2022/06/21 01:08:25;;;;;;;11.10;10.50;;;;;;;15.74;77.94;92490.88;5002349;28;20195;-76
2022/06/21 01:10:56;;;;;;;9.33;8.93;;;;;;;15.52;78.64;92489.22;5002450;28;20258;-76
2022/06/21 01:13:26;;;;;;;9.47;8.97;;;;;;;15.57;78.36;92488.28;5002053;28;20179;-75
2022/06/21 01:15:54;;;;;;;9.83;9.33;;;;;;;15.65;78.61;92490.13;5001448;28;20231;-75
2022/06/21 01:18:21;;;;;;;10.63;10.03;;;;;;;15.42;79.18;92484.28;5005153;28;20187;-75
2022/06/21 01:20:51;;;;;;;9.23;8.67;;;;;;;15.51;78.60;92492.94;4999093;28;20296;-76
2022/06/21 01:23:25;;;;;;;9.33;8.83;;;;;;;15.59;78.27;92494.00;4983793;28;20192;-76
2022/06/21 01:26:12;;;;;;;10.47;9.50;;;;;;;15.60;78.37;92492.91;4975541;28;20282;-76
2022/06/21 01:28:39;;;;;;;10.03;9.33;;;;;;;15.46;78.29;92468.63;5000795;28;20191;-76
2022/06/21 01:31:05;;;;;;;9.97;9.27;;;;;;;15.53;78.10;92482.09;4998790;28;20215;-76
2022/06/21 01:33:34;;;;;;;9.77;9.00;;;;;;;15.68;77.92;92494.78;5000354;28;20190;-75
2022/06/21 01:36:13;;;;;;;9.70;9.20;;;;;;;15.70;77.91;92490.72;4994113;28;20247;-76
2022/06/21 01:38:45;;;;;;;9.87;9.27;;;;;;;15.50;77.88;92480.84;4981307;28;20725;-76
2022/06/21 01:41:17;;;;;;;8.93;8.47;;;;;;;15.46;77.99;92463.38;4981076;28;20208;-76
2022/06/21 01:43:46;;;;;;;9.10;8.57;;;;;;;15.34;78.21;92468.47;4980798;28;20196;-76
2022/06/21 01:46:16;;;;;;;9.43;8.93;;;;;;;15.60;78.20;92509.50;4981170;28;20231;-76
2022/06/21 01:48:54;;;;;;;9.50;9.00;;;;;;;15.59;78.49;92496.66;4983022;28;20184;-76
2022/06/21 01:51:33;;;;;;;9.70;9.20;;;;;;;15.57;78.53;92498.81;4985707;28;20267;-75
2022/06/21 01:54:01;;;;;;;10.10;9.40;;;;;;;15.42;79.08;92500.06;4985087;28;20256;-76
2022/06/21 01:56:31;;;;;;;9.87;9.37;;;;;;;15.41;79.30;92476.72;4987164;28;20223;-75
2022/06/21 01:59:18;;;;;;;9.73;9.23;;;;;;;15.50;79.43;92495.88;4984580;28;20196;-76
2022/06/21 02:01:53;;;;;;;9.30;8.80;;;;;;;15.40;79.54;92491.72;4984865;28;20228;-75
2022/06/21 02:04:22;;;;;;;10.00;9.30;;;;;;;15.38;79.67;92483.34;4979955;28;21856;-75
2022/06/21 02:06:50;;;;;;;9.50;9.00;;;;;;;15.41;79.89;92503.00;4984578;28;20255;-76
2022/06/21 02:09:29;;;;;;;9.87;9.37;;;;;;;15.35;79.61;92512.09;4983189;28;20255;-76
2022/06/21 02:12:07;;;;;;;9.00;8.47;;;;;;;15.31;80.01;92509.31;4985218;28;20227;-76
2022/06/21 02:14:38;;;;;;;10.30;9.60;;;;;;;15.23;80.22;92496.94;4987239;28;20208;-76
2022/06/21 02:17:11;;;;;;;9.10;8.40;;;;;;;15.30;80.53;92499.88;4983247;28;20251;-76
2022/06/21 02:19:43;;;;;;;9.23;8.73;;;;;;;15.28;80.34;92506.53;4982448;28;20203;-76
2022/06/21 02:22:29;;;;;;;9.17;8.67;;;;;;;15.17;80.53;92506.06;4983326;28;20316;-75
2022/06/21 02:24:55;;;;;;;9.13;8.53;;;;;;;15.18;80.81;92499.72;4984334;28;20184;-76
2022/06/21 02:27:24;;;;;;;10.77;10.17;;;;;;;14.91;81.26;92475.56;4983948;28;20232;-75
2022/06/21 02:29:53;;;;;;;9.80;9.30;;;;;;;15.22;80.78;92484.84;4986158;28;20199;-76
2022/06/21 02:32:32;;;;;;;9.73;9.23;;;;;;;14.96;81.39;92485.94;4984107;28;20247;-76
2022/06/21 02:35:06;;;;;;;9.87;9.37;;;;;;;15.04;81.06;92482.53;4983517;28;20263;-76
2022/06/21 02:37:33;;;;;;;9.23;8.73;;;;;;;14.95;81.30;92479.13;4983521;28;20319;-75
2022/06/21 02:40:02;;;;;;;9.07;8.57;;;;;;;15.00;80.69;92460.56;4973315;28;20238;-76
2022/06/21 02:42:31;;;;;;;9.10;8.70;;;;;;;15.13;80.40;92480.69;4984388;28;20291;-75
2022/06/21 02:45:04;;;;;;;9.83;9.17;;;;;;;15.34;79.92;92479.78;4985405;28;20188;-76
2022/06/21 02:47:36;;;;;;;10.00;9.30;;;;;;;15.13;80.13;92483.31;4980716;28;20244;-76
2022/06/21 02:50:13;;;;;;;9.43;8.87;;;;;;;15.35;79.87;92483.94;4979807;28;20197;-76
2022/06/21 02:52:41;;;;;;;9.30;8.57;;;;;;;15.09;79.50;92456.09;4983715;28;20332;-76
2022/06/21 02:55:33;;;;;;;8.67;8.23;;;;;;;15.35;79.44;92493.66;4982025;28;20222;-75
2022/06/21 02:58:09;;;;;;;8.97;8.47;;;;;;;15.27;79.62;92497.09;4982984;28;20231;-76
2022/06/21 03:00:35;;;;;;;9.53;9.10;;;;;;;15.36;79.04;92469.69;4968610;28;20200;-76
2022/06/21 03:03:02;;;;;;;9.73;9.23;;;;;;;15.68;77.50;92489.50;5006695;28;20192;-76
2022/06/21 03:05:28;;;;;;;9.33;8.77;;;;;;;15.84;76.86;92485.31;5005130;28;20203;-76
2022/06/21 03:08:00;;;;;;;8.17;7.77;;;;;;;16.31;74.88;92494.00;4982915;28;20246;-76
2022/06/21 03:10:38;;;;;;;9.00;8.50;;;;;;;16.81;72.71;92487.75;4984646;28;20192;-76
2022/06/21 03:13:10;;;;;;;9.53;9.03;;;;;;;17.33;70.47;92473.13;4982009;28;20222;-75
2022/06/21 03:15:37;;;;;;;9.17;8.50;;;;;;;18.07;67.30;92467.78;4984295;28;20216;-75
2022/06/21 03:18:08;;;;;;;8.53;7.93;;;;;;;18.81;64.82;92478.94;4985089;28;20188;-76
2022/06/21 03:20:34;;;;;;;8.93;8.43;;;;;;;19.50;62.36;92480.59;4989073;28;20195;-75
2022/06/21 03:23:01;;;;;;;9.20;8.57;;;;;;;20.08;60.25;92485.19;4984239;28;20216;-76
2022/06/21 03:25:35;;;;;;;8.60;8.17;;;;;;;20.10;60.05;92486.41;4984178;28;20217;-76
2022/06/21 03:28:01;;;;;;;9.27;8.57;;;;;;;19.60;60.92;92453.63;4981808;28;20188;-75
2022/06/21 03:30:34;;;;;;;8.33;7.83;;;;;;;19.51;61.71;92474.97;4983814;28;20189;-76
2022/06/21 03:33:01;;;;;;;8.63;8.10;;;;;;;19.57;62.53;92480.78;4983332;28;20190;-76
2022/06/21 03:35:31;;;;;;;8.87;8.37;;;;;;;19.70;61.74;92472.47;4983512;28;20238;-76
2022/06/21 03:37:56;;;;;;;9.60;8.77;;;;;;;20.57;59.23;92483.84;4984560;28;20212;-76
2022/06/21 03:43:31;;;;;;;8.27;7.35;;;;;;;22.09;54.90;92486.06;4981358;28;20240;-75
2022/06/21 03:46:01;;;;;;;9.13;8.43;;;;;;;21.45;56.11;92491.19;4985436;28;20234;-76
2022/06/21 03:49:05;;;;;;;9.35;8.77;;;;;;;20.58;58.61;92470.25;4980815;28;20188;-73
2022/06/21 03:51:38;;;;;;;8.23;7.78;;;;;;;21.26;57.54;92513.16;4970564;28;20246;-72
2022/06/21 03:54:20;;;;;;;9.52;8.77;;;;;;;21.43;57.27;92520.00;4982392;28;20222;-75
2022/06/21 03:57:11;;;;;;;8.70;8.10;;;;;;;21.30;57.73;92511.38;4983018;28;20247;-72
2022/06/21 04:00:09;;;;;;;8.23;7.65;;;;;;;21.91;57.00;92514.19;4995662;28;20226;-72
2022/06/21 04:02:44;;;;;;;8.43;8.02;;;;;;;21.56;57.20;92503.56;4969989;28;20223;-74
2022/06/21 04:05:28;;;;;;;8.80;8.30;;;;;;;20.88;59.83;92512.25;4970855;29;20262;-75
2022/06/21 04:08:00;;;;;;;8.65;8.15;;;;;;;20.67;60.31;92513.28;4980595;28;20239;-72
2022/06/21 04:10:32;;;;;;;9.63;9.07;;;;;;;21.17;58.90;92485.28;4981140;28;20229;-71
2022/06/21 04:13:16;;;;;;;7.72;7.35;;;;;;;22.18;56.41;92497.22;4981837;28;20220;-70
2022/06/21 04:16:03;;;;;;;8.90;8.30;;;;;;;21.92;57.09;92494.47;4984396;28;20302;-71
2022/06/21 04:18:55;;;;;;;9.23;8.57;;;;;;;21.69;56.61;92491.72;4982741;28;20204;-72
2022/06/21 04:21:26;;;;;;;9.15;8.35;;;;;;;21.58;57.75;92498.69;4980545;28;20305;-76
2022/06/21 04:24:14;;;;;;;9.60;9.10;;;;;;;21.50;55.92;92494.34;4982025;28;20199;-76
2022/06/21 04:26:56;;;;;;;9.80;9.02;;;;;;;20.90;57.39;92484.25;4979842;28;20242;-75
2022/06/21 04:29:41;;;;;;;9.60;8.80;;;;;;;21.38;56.36;92472.44;4982220;28;20330;-78
2022/06/21 04:32:22;;;;;;;9.32;8.60;;;;;;;21.37;57.13;92484.19;4980818;28;20216;-74
2022/06/21 04:34:59;;;;;;;10.93;9.90;;;;;;;23.37;52.24;92491.28;4982833;28;20217;-74
2022/06/21 04:37:31;;;;;;;10.15;9.35;;;;;;;24.43;47.11;92481.91;4981453;28;20244;-74
2022/06/21 04:39:59;;;;;;;10.48;9.68;;;;;;;23.02;51.77;92485.38;4981069;28;20190;-74
2022/06/21 04:42:43;;;;;;;11.10;9.98;;;;;;;22.15;54.35;92466.03;4981001;28;20217;-74
2022/06/21 04:45:19;;;;;;;14.68;10.23;;;;;;;21.82;55.30;92474.53;4984978;28;20185;-75
2022/06/21 04:48:12;;;;;;;9.82;9.23;;;;;;;21.24;57.92;92477.47;5004357;28;20243;-74
2022/06/21 04:50:51;;;;;;;11.20;10.43;;;;;;;20.70;59.93;92483.41;5000694;28;20744;-74
2022/06/21 04:53:35;;;;;;;10.65;9.85;;;;;;;20.51;61.37;92475.34;4998963;28;20210;-74
2022/06/21 04:56:10;;;;;;;12.13;9.70;;;;;;;20.32;61.92;92488.53;5001193;28;20714;-74
2022/06/21 04:58:36;;;;;;;10.98;10.05;;;;;;;20.54;63.01;92495.16;5000773;28;20285;-74
2022/06/21 05:01:29;;;;;;;11.23;10.20;;;;;;;20.73;62.21;92490.69;4981624;28;20222;-74
2022/06/21 05:03:50;;;;;;;11.52;10.45;;;;;;;20.78;58.68;92488.91;4989918;28;20191;-74
2022/06/21 05:06:15;;;;;;;12.75;11.75;;;;;;;22.32;56.00;92497.50;4988392;28;20261;-74
2022/06/21 05:08:42;;;;;;;11.68;10.63;;;;;;;23.59;51.96;92511.00;4988533;28;20184;-75
2022/06/21 05:11:12;;;;;;;9.90;9.25;;;;;;;23.00;51.17;92510.84;4994272;28;20226;-74
2022/06/21 05:13:40;;;;;;;10.93;10.02;;;;;;;24.17;49.64;92527.38;5003222;28;20190;-74
2022/06/21 05:16:24;;;;;;;10.43;9.50;;;;;;;30.18;36.83;92542.03;4998822;28;20262;-75
2022/06/21 05:18:58;;;;;;;10.55;9.77;;;;;;;30.26;34.09;92556.97;5002459;28;20211;-75
2022/06/21 05:21:37;;;;;;;12.52;9.65;;;;;;;30.42;33.11;92557.94;4999006;28;20570;-75
2022/06/21 05:24:04;;;;;;;10.35;9.57;;;;;;;31.10;31.98;92553.97;5003636;28;20180;-74
2022/06/21 05:26:43;;;;;;;10.25;9.38;;;;;;;26.98;39.68;92543.44;5002626;28;20230;-74
2022/06/21 05:29:21;;;;;;;12.50;10.27;;;;;;;24.85;46.09;92541.06;5004557;28;20215;-74
2022/06/21 05:31:51;;;;;;;13.00;11.70;;;;;;;23.14;52.05;92527.84;5001800;28;20220;-75
2022/06/21 05:34:25;;;;;;;13.43;12.02;;;;;;;24.37;48.11;92486.03;5005134;28;20226;-72
2022/06/21 05:37:25;;;;;;;12.68;11.60;;;;;;;28.18;40.65;92544.13;5004777;28;20709;-80
2022/06/21 05:39:52;;;;;;;11.85;10.85;;;;;;;33.92;29.82;92555.50;5007215;28;20171;-73
2022/06/21 05:42:20;;;;;;;11.80;10.82;;;;;;;35.58;27.00;92565.94;5005251;28;20239;-73
2022/06/21 05:44:50;;;;;;;10.88;9.98;;;;;;;36.60;25.43;92565.31;5002903;28;20180;-74
2022/06/21 05:47:30;;;;;;;10.93;9.77;;;;;;;37.45;24.17;92562.97;5006355;28;20232;-75
2022/06/21 05:49:57;;;;;;;11.23;10.10;;;;;;;38.97;22.05;92562.91;5007477;28;20188;-75
2022/06/21 05:52:25;;;;;;;10.82;9.88;;;;;;;37.32;24.00;92559.59;4987766;28;20235;-71
2022/06/21 05:55:16;;;;;;;10.55;9.57;;;;;;;38.47;22.60;92556.88;5003378;28;20227;-75
2022/06/21 05:57:49;;;;;;;9.30;8.68;;;;;;;36.91;24.25;92547.09;5006323;28;20215;-75
2022/06/21 06:00:40;;;;;;;9.18;8.32;;;;;;;35.97;24.99;92551.16;5007597;28;20199;-74
2022/06/21 06:03:20;;;;;;;9.30;8.57;;;;;;;37.21;23.68;92561.16;5004564;28;20211;-73
2022/06/21 06:05:47;;;;;;;9.45;8.68;;;;;;;36.74;24.06;92558.59;5001839;28;20535;-74
2022/06/21 06:08:18;;;;;;;10.60;8.63;;;;;;;39.19;21.78;92547.88;5003683;28;20192;-74
2022/06/21 06:10:47;;;;;;;9.13;8.40;;;;;;;40.79;20.57;92559.63;5002693;28;20227;-74
2022/06/21 06:13:17;;;;;;;8.88;8.27;;;;;;;38.22;21.85;92538.06;5005506;28;20263;-73
2022/06/21 06:15:49;;;;;;;9.40;8.60;;;;;;;37.64;22.53;92547.47;5006324;28;20299;-74
2022/06/21 06:18:17;;;;;;;11.75;9.38;;;;;;;37.98;23.25;92556.19;5004162;28;20191;-74
2022/06/21 06:21:35;;;;;;;10.35;9.38;;;;;;;37.34;22.92;92562.63;5008501;28;20315;-73
2022/06/21 06:24:25;;;;;;;10.18;9.25;;;;;;;36.08;24.96;92558.94;4891992;29;20196;-75
2022/06/21 06:26:56;;;;;;;11.35;10.25;;;;;;;35.44;25.66;92558.25;5005331;28;20336;-73
2022/06/21 06:29:25;;;;;;;10.23;9.40;;;;;;;36.12;24.77;92556.88;5004662;28;20751;-74
2022/06/21 06:31:58;;;;;;;9.80;9.07;;;;;;;37.55;23.06;92577.38;5004140;28;20250;-71
2022/06/21 06:34:30;;;;;;;10.10;9.20;;;;;;;39.26;22.03;92569.41;5002037;28;20188;-73
2022/06/21 06:37:07;;;;;;;9.77;8.98;;;;;;;39.09;21.54;92597.50;5001771;28;20259;-73
2022/06/21 06:39:36;;;;;;;15.40;10.32;;;;;;;38.18;22.90;92575.63;5003075;28;20167;-74
2022/06/21 06:42:11;;;;;;;10.23;9.40;;;;;;;35.61;26.34;92567.06;5003977;28;20251;-75
2022/06/21 06:44:47;;;;;;;10.73;9.75;;;;;;;35.51;26.21;92558.03;5003707;28;20210;-73
2022/06/21 06:47:36;;;;;;;13.57;9.65;;;;;;;37.62;23.86;92566.97;5003795;28;20279;-73
2022/06/21 06:50:34;;;;;;;12.55;11.10;;;;;;;36.93;24.73;92565.69;5004577;28;20200;-74
2022/06/21 06:53:06;;;;;;;11.27;10.23;;;;;;;33.18;29.53;92555.69;5006690;28;20207;-73
2022/06/21 06:55:38;;;;;;;11.80;10.60;;;;;;;30.78;33.96;92542.88;5004889;28;20220;-71
2022/06/21 06:58:11;;;;;;;12.05;11.00;;;;;;;27.55;41.11;92522.78;5002112;28;20210;-71
2022/06/21 07:00:42;;;;;;;13.32;11.55;;;;;;;26.36;44.39;92520.69;4999596;28;20243;-72
2022/06/21 07:03:14;;;;;;;12.20;10.95;;;;;;;26.51;44.92;92508.84;5004056;28;20189;-72
2022/06/21 07:05:52;;;;;;;12.48;11.20;;;;;;;26.86;44.40;92510.88;5001189;28;20294;-72
2022/06/21 07:09:02;;;;;;;10.93;9.88;;;;;;;25.66;46.03;92501.63;5001115;28;20218;-71
2022/06/21 07:11:43;;;;;;;11.77;10.77;;;;;;;25.32;48.92;92514.38;4996450;28;20261;-73
2022/06/21 07:14:15;;;;;;;12.18;11.07;;;;;;;25.26;49.65;92508.59;5002479;28;20965;-73
2022/06/21 07:16:42;;;;;;;12.35;11.25;;;;;;;24.83;51.57;92505.94;5001084;28;20227;-74
2022/06/21 07:19:10;;;;;;;11.63;10.65;;;;;;;25.46;49.48;92503.03;5005602;28;20183;-72
2022/06/21 07:21:37;;;;;;;11.40;10.30;;;;;;;24.89;53.40;92515.94;5003199;28;20230;-74
2022/06/21 07:24:08;;;;;;;13.38;11.75;;;;;;;25.34;52.16;92506.75;5005795;28;20175;-75
2022/06/21 07:26:59;;;;;;;17.80;10.95;;;;;;;25.66;50.67;92509.63;5003728;28;20223;-75
2022/06/21 07:29:40;;;;;;;10.43;9.38;;;;;;;25.48;51.37;92517.53;4995034;28;20207;-74
2022/06/21 07:32:15;;;;;;;11.30;10.18;;;;;;;25.73;48.72;92518.47;4998101;28;20257;-74
2022/06/21 07:34:47;;;;;;;10.75;9.82;;;;;;;25.78;48.97;92517.34;5004041;28;20198;-73
2022/06/21 07:37:15;;;;;;;11.13;10.13;;;;;;;25.24;51.30;92534.16;4987867;28;20221;-75
2022/06/21 07:39:59;;;;;;;10.65;9.70;;;;;;;25.47;51.51;92524.03;4974155;28;20870;-76
2022/06/21 07:42:31;;;;;;;12.02;10.90;;;;;;;25.68;48.18;92520.72;4986302;28;20283;-75
2022/06/21 07:45:06;;;;;;;11.55;10.65;;;;;;;25.60;50.64;92544.00;4968724;28;20928;-73
2022/06/21 07:47:43;;;;;;;10.68;9.85;;;;;;;25.90;47.60;92539.19;5002656;28;20213;-74
2022/06/21 07:50:19;;;;;;;10.60;9.73;;;;;;;25.85;46.57;92544.91;5002653;28;20217;-73
2022/06/21 07:52:54;;;;;;;11.43;10.50;;;;;;;26.23;46.84;92538.22;5004419;28;20203;-73
2022/06/21 07:55:30;;;;;;;12.15;10.95;;;;;;;25.81;46.27;92546.00;5003810;28;20214;-72
2022/06/21 07:58:13;;;;;;;10.23;9.52;;;;;;;26.69;45.86;92556.00;5000996;28;20182;-71
2022/06/21 08:09:23;;;;;;;10.80;10.10;;;;;;;25.49;48.16;92567.22;5004368;28;20820;-67
2022/06/21 08:11:51;;;;;;;10.50;9.68;;;;;;;25.51;48.77;92567.59;5004422;28;20253;-69
2022/06/21 08:14:17;;;;;;;12.32;11.27;;;;;;;25.93;48.71;92572.47;5007624;28;20238;-70
2022/06/21 08:16:53;;;;;;;11.15;10.27;;;;;;;26.20;48.09;92574.56;5004142;28;20221;-70
2022/06/21 08:19:33;;;;;;;12.52;11.23;;;;;;;25.56;48.94;92567.25;5002160;28;20208;-71
2022/06/21 08:22:05;;;;;;;11.98;10.82;;;;;;;25.63;49.29;92567.31;5003030;28;20267;-71
2022/06/21 08:24:42;;;;;;;12.35;10.27;;;;;;;25.91;49.09;92567.50;5003999;28;20210;-69
2022/06/21 08:27:32;;;;;;;12.50;11.30;;;;;;;26.09;47.58;92568.38;5002645;28;20254;-71
2022/06/21 08:30:05;;;;;;;11.60;10.80;;;;;;;25.50;49.35;92574.09;4999780;28;20194;-72
2022/06/21 08:32:44;;;;;;;11.80;10.57;;;;;;;25.72;50.08;92575.00;5001258;28;20231;-70
2022/06/21 08:35:42;;;;;;;11.27;10.48;;;;;;;26.22;50.14;92582.97;5000041;28;20210;-70
2022/06/21 08:38:17;;;;;;;11.23;10.48;;;;;;;26.27;48.88;92587.22;5000686;28;20708;-70
2022/06/21 08:41:51;;;;;;;11.10;10.20;;;;;;;26.40;48.89;92583.81;5001060;28;20237;-71
2022/06/21 08:44:23;;;;;;;11.55;10.52;;;;;;;26.50;49.61;92585.78;5002915;28;20199;-73
2022/06/21 08:47:01;;;;;;;11.90;10.90;;;;;;;26.36;50.10;92583.03;4991450;28;20235;-73
2022/06/21 08:49:55;;;;;;;14.40;11.48;;;;;;;26.01;49.85;92566.06;5001767;28;20209;-74
2022/06/21 08:52:37;;;;;;;14.60;10.85;;;;;;;25.74;50.97;92567.38;5000456;28;20230;-74
2022/06/21 08:55:26;;;;;;;12.82;11.25;;;;;;;25.92;51.73;92579.72;5002451;28;20214;-75
2022/06/21 08:58:35;;;;;;;12.68;11.63;;;;;;;26.38;50.79;92574.63;5000553;28;20211;-75
2022/06/21 09:01:25;;;;;;;12.73;11.63;;;;;;;26.22;51.04;92569.59;5008414;28;20245;-74
2022/06/21 09:04:00;;;;;;;13.23;12.13;;;;;;;25.84;52.87;92567.44;5005231;28;20188;-74
2022/06/21 09:06:51;;;;;;;11.75;10.75;;;;;;;25.95;52.08;92549.53;5003696;28;20235;-75
2022/06/21 09:09:31;;;;;;;12.43;11.23;;;;;;;25.91;53.44;92551.44;5004282;28;20195;-73
2022/06/21 09:12:41;;;;;;;12.25;11.20;;;;;;;26.26;51.76;92554.31;5005591;28;20257;-74
2022/06/21 09:15:06;;;;;;;12.70;11.52;;;;;;;26.17;51.84;92548.53;4971133;28;20235;-73
2022/06/21 09:18:06;;;;;;;13.40;11.40;;;;;;;26.11;52.58;92538.56;5003143;28;20951;-75
2022/06/21 09:20:39;;;;;;;11.93;10.93;;;;;;;25.94;53.07;92542.66;5004149;28;20179;-76
2022/06/21 09:23:37;;;;;;;16.85;11.18;;;;;;;26.24;52.10;92537.84;5004619;28;20199;-82
2022/06/21 09:26:10;;;;;;;13.15;11.85;;;;;;;26.33;53.65;92546.31;5004965;28;20242;-73
2022/06/21 09:28:57;;;;;;;12.50;11.40;;;;;;;26.63;51.88;92543.34;5005413;28;20210;-73
2022/06/21 09:31:57;;;;;;;12.30;11.18;;;;;;;26.70;52.92;92538.81;5003406;28;20223;-75
2022/06/21 09:34:38;;;;;;;13.15;11.80;;;;;;;26.60;52.08;92525.34;5004990;28;20192;-72
2022/06/21 09:37:09;;;;;;;11.73;10.93;;;;;;;26.47;52.59;92541.00;5007052;28;21084;-75
2022/06/21 09:39:59;;;;;;;12.02;11.02;;;;;;;26.42;52.25;92537.91;5002829;28;20197;-74
2022/06/21 09:42:38;;;;;;;12.48;11.40;;;;;;;26.64;52.02;92528.81;4984265;28;20248;-76
2022/06/21 09:45:09;;;;;;;12.20;11.07;;;;;;;26.71;51.52;92528.81;5005985;28;20190;-76
2022/06/21 09:47:37;;;;;;;12.55;11.32;;;;;;;26.77;50.23;92521.19;5002919;28;20257;-77
2022/06/21 09:50:17;;;;;;;12.32;11.30;;;;;;;27.02;50.79;92517.38;5005504;28;20200;-75
2022/06/21 09:53:00;;;;;;;13.20;11.90;;;;;;;26.90;51.01;92520.44;5005943;28;20210;-76
2022/06/21 09:55:56;;;;;;;17.33;15.55;;;;;;;26.95;50.27;92513.94;4991587;28;20207;-75
2022/06/21 09:58:40;;;;;;;13.95;12.85;;;;;;;27.25;50.13;92528.53;5006356;28;20199;-73
2022/06/21 10:01:24;;;;;;;14.18;12.88;;;;;;;27.38;49.28;92520.88;5003667;28;20231;-72
2022/06/21 10:03:59;;;;;;;12.98;11.75;;;;;;;27.72;48.31;92527.34;5006054;28;20191;-84
2022/06/21 10:06:28;;;;;;;12.52;11.48;;;;;;;27.84;49.04;92518.88;5006104;28;20243;-71
2022/06/21 10:09:15;;;;;;;13.70;12.35;;;;;;;27.12;48.44;92523.91;5004999;28;20275;-71
2022/06/21 10:12:25;;;;;;;12.60;11.15;;;;;;;27.41;49.19;92522.81;5001698;28;20227;-74
2022/06/21 10:15:28;;;;;;;13.82;12.50;;;;;;;27.16;49.76;92522.00;4999912;28;20215;-77
2022/06/21 10:18:11;;;;;;;12.60;11.70;;;;;;;26.99;50.95;92520.09;5004515;28;20203;-77
2022/06/21 10:21:09;;;;;;;12.98;11.95;;;;;;;27.00;50.13;92514.34;5005227;28;20315;-76
2022/06/21 10:23:53;;;;;;;13.88;12.35;;;;;;;27.25;50.32;92515.13;5005383;28;20202;-76
2022/06/21 10:26:39;;;;;;;16.00;11.55;;;;;;;27.14;49.41;92524.28;5000675;28;20235;-75
2022/06/21 10:29:26;;;;;;;13.35;12.25;;;;;;;27.57;51.49;92528.50;5002181;28;20187;-75
2022/06/21 10:32:21;;;;;;;12.55;11.57;;;;;;;27.93;50.01;92538.06;5003648;28;20235;-76
2022/06/21 10:34:52;;;;;;;11.38;10.43;;;;;;;27.76;48.20;92528.09;4986634;28;20228;-75
2022/06/21 10:37:43;;;;;;;13.98;12.70;;;;;;;27.46;48.85;92514.34;4986455;28;20249;-74
2022/06/21 10:40:31;;;;;;;12.30;11.43;;;;;;;27.10;48.54;92520.88;4984337;28;20208;-74
2022/06/21 10:43:14;;;;;;;13.02;11.80;;;;;;;27.34;48.60;92517.44;5000100;28;20247;-75
2022/06/21 10:45:52;;;;;;;12.05;11.05;;;;;;;27.55;49.42;92515.47;5004183;28;20231;-74
2022/06/21 10:48:55;;;;;;;11.68;10.77;;;;;;;27.64;47.81;92515.84;5002955;28;20270;-77
2022/06/21 10:51:42;;;;;;;13.07;11.93;;;;;;;27.72;47.71;92522.00;5003257;28;20298;-76
2022/06/21 10:54:45;;;;;;;13.07;11.95;;;;;;;27.98;46.87;92532.31;5001516;28;20199;-81
2022/06/21 10:57:32;;;;;;;12.80;11.75;;;;;;;27.71;47.08;92525.81;5002613;28;20241;-76
2022/06/21 11:02:56;;;;;;;12.18;11.27;;;;;;;27.96;47.79;92531.91;5005080;28;20218;-77
2022/06/21 11:05:52;;;;;;;12.98;11.90;;;;;;;27.87;47.05;92526.16;4990840;28;20192;-76
2022/06/21 11:08:37;;;;;;;13.60;12.27;;;;;;;28.20;47.56;92520.34;5004441;28;20239;-76
2022/06/21 11:11:15;;;;;;;11.90;11.00;;;;;;;27.68;47.08;92522.00;5004289;28;20231;-75
2022/06/21 11:13:56;;;;;;;14.68;11.20;;;;;;;27.72;48.65;92543.47;5001697;28;20223;-74
2022/06/21 11:16:25;;;;;;;13.48;12.20;;;;;;;27.52;48.15;92539.66;5002732;28;20256;-75
2022/06/21 11:19:34;;;;;;;11.63;10.52;;;;;;;27.43;48.18;92539.25;5004180;28;20759;-75
2022/06/21 11:22:37;;;;;;;12.15;11.25;;;;;;;27.51;49.04;92540.78;5004597;28;20234;-76
2022/06/21 11:26:01;;;;;;;12.73;11.73;;;;;;;27.54;48.28;92543.47;5000882;28;20186;-79
2022/06/21 11:29:02;;;;;;;17.58;12.23;;;;;;;27.57;49.31;92545.38;4944381;29;20221;-74
2022/06/21 11:31:40;;;;;;;14.05;11.65;;;;;;;27.72;49.20;92548.81;4995711;28;20470;-74
2022/06/21 11:34:21;;;;;;;12.57;11.57;;;;;;;27.77;49.11;92554.56;5003455;28;20179;-73
2022/06/21 11:37:17;;;;;;;12.95;11.73;;;;;;;27.90;48.93;92538.84;5000249;28;20258;-74
2022/06/21 11:39:53;;;;;;;13.10;11.73;;;;;;;27.95;50.05;92541.13;5002641;28;20199;-74
2022/06/21 11:42:38;;;;;;;13.40;12.27;;;;;;;28.30;49.64;92545.63;5001972;28;20223;-75
2022/06/21 11:45:14;;;;;;;12.55;11.50;;;;;;;28.04;48.42;92552.22;5004180;28;20193;-77
2022/06/21 11:48:04;;;;;;;13.02;12.02;;;;;;;27.85;49.40;92544.56;4984385;28;20286;-78
2022/06/21 11:50:45;;;;;;;12.90;11.57;;;;;;;27.56;49.22;92545.78;5000398;28;20191;-79
2022/06/21 11:53:22;;;;;;;13.07;11.93;;;;;;;27.48;48.71;92546.91;5002369;28;20200;-77
2022/06/21 11:56:06;;;;;;;13.77;12.00;;;;;;;27.80;49.31;92526.19;5004219;28;20246;-77
2022/06/21 11:58:35;;;;;;;12.55;11.45;;;;;;;28.04;48.13;92539.56;5000467;28;20210;-77
2022/06/21 12:01:05;;;;;;;13.75;11.70;;;;;;;28.05;49.88;92524.22;4991358;28;20226;-78
2022/06/21 12:03:59;;;;;;;12.55;11.55;;;;;;;28.03;49.09;92537.28;5005013;28;20214;-76
2022/06/21 12:06:37;;;;;;;13.18;12.13;;;;;;;28.03;48.96;92531.91;5002162;28;20250;-76
2022/06/21 12:09:33;;;;;;;11.50;10.75;;;;;;;28.17;48.46;92537.97;5005316;28;20195;-76
2022/06/21 12:12:10;;;;;;;12.40;11.27;;;;;;;28.08;47.06;92528.81;4999971;28;20232;-77
2022/06/21 12:14:57;;;;;;;12.38;11.40;;;;;;;28.32;46.94;92525.28;5002172;28;20191;-77
2022/06/21 12:17:28;;;;;;;12.13;11.13;;;;;;;28.71;45.71;92530.50;5001718;28;20267;-78
2022/06/21 12:19:59;;;;;;;14.00;12.68;;;;;;;29.26;45.37;92521.31;5003648;28;20241;-78
2022/06/21 12:22:38;;;;;;;12.07;11.15;;;;;;;29.12;45.24;92526.03;5001086;28;20256;-79
2022/06/21 12:25:09;;;;;;;12.38;11.43;;;;;;;28.78;46.47;92528.53;5003347;28;20274;-78
2022/06/21 12:27:35;;;;;;;11.25;10.27;;;;;;;28.61;45.00;92526.69;5001138;28;20230;-78